createdAt,value
2018-06-27T00:01:26.399Z,15.70
2018-06-27T00:03:54.921Z,15.60
2018-06-27T00:06:23.487Z,15.60
2018-06-27T00:08:51.970Z,15.60
2018-06-27T00:11:20.478Z,15.50
2018-06-27T00:13:48.915Z,15.50
2018-06-27T00:16:17.470Z,15.40
2018-06-27T00:18:46.065Z,15.40
2018-06-27T00:21:14.754Z,15.40
2018-06-27T00:23:43.256Z,15.40
2018-06-27T00:26:11.722Z,15.40
2018-06-27T00:28:40.201Z,15.40
2018-06-27T00:31:08.789Z,15.30
2018-06-27T00:33:37.389Z,15.30
2018-06-27T00:36:06.103Z,15.30
2018-06-27T00:38:34.672Z,15.30
2018-06-27T00:41:03.322Z,15.30
2018-06-27T00:43:31.878Z,15.20
2018-06-27T00:46:00.468Z,15.10
2018-06-27T00:48:28.970Z,15.10
2018-06-27T00:53:30.987Z,14.90
2018-06-27T00:55:59.498Z,14.90
2018-06-27T00:58:28.054Z,14.90
2018-06-27T01:00:56.614Z,14.90
2018-06-27T01:03:25.106Z,14.90
2018-06-27T01:05:53.623Z,14.90
2018-06-27T01:08:22.162Z,14.90
2018-06-27T01:10:50.730Z,14.90
2018-06-27T01:13:19.220Z,14.90
2018-06-27T01:15:47.898Z,14.90
2018-06-27T01:18:16.611Z,14.80
2018-06-27T01:23:13.372Z,14.60
2018-06-27T01:25:41.849Z,14.60
2018-06-27T01:28:10.782Z,14.40
2018-06-27T01:30:39.278Z,14.30
2018-06-27T01:33:07.734Z,14.20
2018-06-27T01:35:36.186Z,14.20
2018-06-27T01:38:04.794Z,14.20
2018-06-27T01:40:33.278Z,14.20
2018-06-27T01:43:01.829Z,14.10
2018-06-27T01:45:30.325Z,14.10
2018-06-27T01:50:27.134Z,14.00
2018-06-27T01:52:55.649Z,14.00
2018-06-27T01:55:24.166Z,13.90
2018-06-27T01:57:52.818Z,13.90
2018-06-27T02:00:21.422Z,13.90
2018-06-27T02:02:49.965Z,13.90
2018-06-27T02:05:18.462Z,13.80
2018-06-27T02:07:47.031Z,13.80
2018-06-27T02:10:15.579Z,13.80
2018-06-27T02:12:44.079Z,13.80
2018-06-27T02:15:12.787Z,13.80
2018-06-27T02:17:41.356Z,13.70
2018-06-27T02:20:09.906Z,13.70
2018-06-27T02:22:38.534Z,13.70
2018-06-27T02:25:07.172Z,13.70
2018-06-27T02:27:35.816Z,13.60
2018-06-27T02:30:04.403Z,13.60
2018-06-27T02:32:32.930Z,13.60
2018-06-27T02:35:01.414Z,13.60
2018-06-27T02:37:30.010Z,13.50
2018-06-27T02:39:58.556Z,13.50
2018-06-27T02:42:27.064Z,13.50
2018-06-27T02:44:55.596Z,13.50
2018-06-27T02:47:24.101Z,13.50
2018-06-27T02:49:52.594Z,13.50
2018-06-27T02:52:21.214Z,13.50
2018-06-27T02:54:49.784Z,13.60
2018-06-27T02:57:18.262Z,13.60
2018-06-27T02:59:46.830Z,13.50
2018-06-27T03:02:15.390Z,13.50
2018-06-27T03:04:43.914Z,13.40
2018-06-27T03:07:12.515Z,13.40
2018-06-27T03:12:09.214Z,13.40
2018-06-27T03:14:37.728Z,13.40
2018-06-27T03:17:06.270Z,13.50
2018-06-27T03:19:34.755Z,13.60
2018-06-27T03:22:03.515Z,13.60
2018-06-27T03:24:32.034Z,13.70
2018-06-27T03:27:00.525Z,13.70
2018-06-27T03:29:29.259Z,13.80
2018-06-27T03:31:57.717Z,13.90
2018-06-27T03:34:26.290Z,14.00
2018-06-27T03:36:54.887Z,14.00
2018-06-27T03:39:23.410Z,14.10
2018-06-27T03:41:52.038Z,14.20
2018-06-27T03:44:20.758Z,14.20
2018-06-27T03:46:49.299Z,14.30
2018-06-27T03:49:17.858Z,14.40
2018-06-27T03:51:46.399Z,14.50
2018-06-27T03:54:14.899Z,14.50
2018-06-27T03:56:43.398Z,14.60
2018-06-27T03:59:12.063Z,14.70
2018-06-27T04:01:40.589Z,14.80
2018-06-27T04:04:09.187Z,14.80
2018-06-27T04:06:37.856Z,14.90
2018-06-27T04:09:09.014Z,14.90
2018-06-27T04:11:37.561Z,15.00
2018-06-27T04:14:06.191Z,15.10
2018-06-27T04:16:34.711Z,15.10
2018-06-27T04:19:03.158Z,15.20
2018-06-27T04:21:31.661Z,15.30
2018-06-27T04:24:00.195Z,15.40
2018-06-27T04:26:28.792Z,15.40
2018-06-27T04:28:57.369Z,15.50
2018-06-27T04:31:25.858Z,15.60
2018-06-27T04:33:54.342Z,15.70
2018-06-27T04:36:22.913Z,15.70
2018-06-27T04:38:51.469Z,15.80
2018-06-27T04:41:19.950Z,15.90
2018-06-27T04:43:48.506Z,15.90
2018-06-27T04:46:16.974Z,16.00
2018-06-27T04:48:45.498Z,16.10
2018-06-27T04:51:14.046Z,16.10
2018-06-27T04:53:42.539Z,16.20
2018-06-27T04:56:11.844Z,16.30
2018-06-27T04:58:40.506Z,16.30
2018-06-27T05:01:09.325Z,16.40
2018-06-27T05:03:38.375Z,16.40
2018-06-27T05:06:06.975Z,16.50
2018-06-27T05:11:03.784Z,16.60
2018-06-27T05:13:32.326Z,16.60
2018-06-27T05:16:00.944Z,16.70
2018-06-27T05:18:29.434Z,16.80
2018-06-27T05:20:58.019Z,16.90
2018-06-27T05:23:26.582Z,16.90
2018-06-27T05:25:55.081Z,17.00
2018-06-27T05:28:23.786Z,17.00
2018-06-27T05:30:52.334Z,17.10
2018-06-27T05:33:20.950Z,17.20
2018-06-27T05:35:49.574Z,17.20
2018-06-27T05:38:18.038Z,17.30
2018-06-27T05:40:46.473Z,17.30
2018-06-27T05:43:15.046Z,17.40
2018-06-27T05:45:43.878Z,17.40
2018-06-27T05:48:12.382Z,17.50
2018-06-27T05:50:41.074Z,17.50
2018-06-27T05:53:09.588Z,17.60
2018-06-27T05:55:38.042Z,17.70
2018-06-27T05:58:06.570Z,17.70
2018-06-27T06:00:35.010Z,17.70
2018-06-27T06:03:03.458Z,17.80
2018-06-27T06:05:31.966Z,17.90
2018-06-27T06:08:00.409Z,17.90
2018-06-27T06:10:28.865Z,18.00
2018-06-27T06:12:57.376Z,18.00
2018-06-27T06:15:25.851Z,18.20
2018-06-27T06:17:54.855Z,18.20
2018-06-27T06:20:23.434Z,18.30
2018-06-27T06:25:20.128Z,18.50
2018-06-27T06:27:48.655Z,18.60
2018-06-27T06:30:17.162Z,18.70
2018-06-27T06:32:45.722Z,18.90
2018-06-27T06:35:14.238Z,19.00
2018-06-27T06:37:42.693Z,19.20
2018-06-27T06:40:11.230Z,19.40
2018-06-27T06:42:40.199Z,19.60
2018-06-27T06:45:08.611Z,19.80
2018-06-27T06:47:37.070Z,19.90
2018-06-27T06:50:05.587Z,20.10
2018-06-27T06:52:34.114Z,20.20
2018-06-27T06:57:31.465Z,20.50
2018-06-27T06:59:59.886Z,20.50
2018-06-27T07:02:28.347Z,20.60
2018-06-27T07:04:56.959Z,20.70
2018-06-27T07:07:25.379Z,20.70
2018-06-27T07:09:53.816Z,20.80
2018-06-27T07:12:22.355Z,20.90
2018-06-27T07:14:50.822Z,20.90
2018-06-27T07:17:19.282Z,21.00
2018-06-27T07:19:47.902Z,21.10
2018-06-27T07:22:16.515Z,21.10
2018-06-27T07:24:45.098Z,21.20
2018-06-27T07:27:13.858Z,21.30
2018-06-27T07:29:42.599Z,21.30
2018-06-27T07:32:11.060Z,21.30
2018-06-27T07:34:39.569Z,21.30
2018-06-27T07:37:08.148Z,21.40
2018-06-27T07:42:10.675Z,21.70
2018-06-27T07:44:39.403Z,21.80
2018-06-27T07:47:08.214Z,21.90
2018-06-27T07:49:36.774Z,22.00
2018-06-27T07:52:05.547Z,22.10
2018-06-27T07:54:41.979Z,22.20
2018-06-27T07:57:13.766Z,22.30
2018-06-27T07:59:42.667Z,22.30
2018-06-27T08:02:11.234Z,22.40
2018-06-27T08:04:39.789Z,22.50
2018-06-27T08:07:08.490Z,22.60
2018-06-27T08:09:37.250Z,22.70
2018-06-27T08:12:06.299Z,22.80
2018-06-27T08:14:35.647Z,22.90
2018-06-27T08:17:04.271Z,23.00
2018-06-27T08:19:32.981Z,23.10
2018-06-27T08:22:01.600Z,23.10
2018-06-27T08:24:30.236Z,23.20
2018-06-27T08:26:58.973Z,23.30
2018-06-27T08:29:28.054Z,23.40
2018-06-27T08:31:57.782Z,23.40
2018-06-27T08:34:28.131Z,23.50
2018-06-27T08:36:58.457Z,23.60
2018-06-27T08:39:28.545Z,23.60
2018-06-27T08:41:58.222Z,23.60
2018-06-27T08:44:27.224Z,23.50
2018-06-27T08:46:56.184Z,23.50
2018-06-27T08:49:25.153Z,23.60
2018-06-27T08:51:54.039Z,23.70
2018-06-27T08:54:23.017Z,23.90
2018-06-27T08:56:52.920Z,24.00
2018-06-27T08:59:23.014Z,24.10
2018-06-27T09:01:52.012Z,24.20
2018-06-27T09:04:21.251Z,24.30
2018-06-27T09:06:50.202Z,24.40
2018-06-27T09:09:19.122Z,24.50
2018-06-27T09:11:49.122Z,24.70
2018-06-27T09:14:18.090Z,24.80
2018-06-27T09:16:46.946Z,24.90
2018-06-27T09:19:15.830Z,24.90
2018-06-27T09:21:44.725Z,25.00
2018-06-27T09:24:13.580Z,25.00
2018-06-27T09:26:43.185Z,25.00
2018-06-27T09:29:12.930Z,25.10
2018-06-27T09:31:41.787Z,25.10
2018-06-27T09:34:10.966Z,25.10
2018-06-27T09:36:40.485Z,25.10
2018-06-27T09:39:10.930Z,25.20
2018-06-27T09:41:40.557Z,25.20
2018-06-27T09:44:09.651Z,25.30
2018-06-27T09:46:38.488Z,25.40
2018-06-27T09:49:07.381Z,25.50
2018-06-27T09:51:41.285Z,25.60
2018-06-27T09:54:11.920Z,25.70
2018-06-27T09:56:40.915Z,25.70
2018-06-27T09:59:12.676Z,25.80
2018-06-27T10:01:42.738Z,25.80
2018-06-27T10:04:11.659Z,25.80
2018-06-27T10:06:49.506Z,25.80
2018-06-27T10:09:18.438Z,25.90
2018-06-27T10:11:53.704Z,26.00
2018-06-27T10:14:23.693Z,26.00
2018-06-27T10:16:52.764Z,26.00
2018-06-27T10:19:21.686Z,26.00
2018-06-27T10:21:50.591Z,25.90
2018-06-27T10:24:19.706Z,25.70
2018-06-27T10:26:48.622Z,25.50
2018-06-27T10:29:17.663Z,25.30
2018-06-27T10:31:46.506Z,25.20
2018-06-27T10:34:15.479Z,25.10
2018-06-27T10:36:44.315Z,25.00
2018-06-27T10:39:13.267Z,25.00
2018-06-27T10:41:42.270Z,25.00
2018-06-27T10:44:11.604Z,24.90
2018-06-27T10:46:41.039Z,25.00
2018-06-27T10:49:10.494Z,25.10
2018-06-27T10:51:39.561Z,25.00
2018-06-27T10:54:08.834Z,24.90
2018-06-27T10:56:44.166Z,24.90
2018-06-27T10:59:13.081Z,25.00
2018-06-27T11:01:41.871Z,25.00
2018-06-27T11:06:39.701Z,25.10
2018-06-27T11:09:09.542Z,25.20
2018-06-27T11:11:40.200Z,25.10
2018-06-27T11:14:10.053Z,25.20
2018-06-27T11:16:38.938Z,25.30
2018-06-27T11:19:07.827Z,25.40
2018-06-27T11:21:36.802Z,25.50
2018-06-27T11:24:05.677Z,25.60
2018-06-27T11:26:34.754Z,25.70
2018-06-27T11:29:03.707Z,25.90
2018-06-27T11:31:32.646Z,25.90
2018-06-27T11:34:01.758Z,25.80
2018-06-27T11:36:30.731Z,25.70
2018-06-27T11:38:59.622Z,25.50
2018-06-27T11:41:28.666Z,25.50
2018-06-27T11:43:57.527Z,25.60
2018-06-27T11:46:27.796Z,25.60
2018-06-27T11:49:02.755Z,25.50
2018-06-27T11:51:31.691Z,25.20
2018-06-27T11:54:01.553Z,25.00
2018-06-27T11:56:30.878Z,25.00
2018-06-27T11:59:00.616Z,25.00
2018-06-27T12:01:29.545Z,25.10
2018-06-27T12:03:59.100Z,25.20
2018-06-27T12:06:33.797Z,25.30
2018-06-27T12:09:02.808Z,25.30
2018-06-27T12:11:33.297Z,25.30
2018-06-27T12:14:04.179Z,25.40
2018-06-27T12:16:33.101Z,25.60
2018-06-27T12:19:04.676Z,25.80
2018-06-27T12:21:33.842Z,25.90
2018-06-27T12:24:02.970Z,26.10
2018-06-27T12:26:32.477Z,26.20
2018-06-27T12:29:02.691Z,26.30
2018-06-27T12:31:33.510Z,26.40
2018-06-27T12:34:02.571Z,26.40
2018-06-27T12:36:32.709Z,26.40
2018-06-27T12:39:09.403Z,26.40
2018-06-27T12:42:10.451Z,26.50
2018-06-27T12:44:44.576Z,26.50
2018-06-27T12:47:14.415Z,26.60
2018-06-27T12:49:44.672Z,26.70
2018-06-27T12:52:14.719Z,26.60
2018-06-27T12:54:55.875Z,26.60
2018-06-27T12:57:28.922Z,26.70
2018-06-27T12:59:58.492Z,26.70
2018-06-27T13:03:47.283Z,26.70
2018-06-27T13:06:15.782Z,26.70
2018-06-27T13:08:44.302Z,26.80
2018-06-27T13:11:13.158Z,26.90
2018-06-27T13:13:41.634Z,27.00
2018-06-27T13:18:38.334Z,27.40
2018-06-27T13:21:06.872Z,27.40
2018-06-27T13:26:03.614Z,27.50
2018-06-27T13:28:32.179Z,27.70
2018-06-27T13:31:00.690Z,28.10
2018-06-27T13:33:29.242Z,28.30
2018-06-27T13:35:57.731Z,28.20
2018-06-27T13:38:26.214Z,28.10
2018-06-27T13:40:54.735Z,28.20
2018-06-27T13:45:51.434Z,28.30
2018-06-27T13:48:19.914Z,28.50
2018-06-27T13:50:48.403Z,28.50
2018-06-27T13:53:16.951Z,28.20
2018-06-27T13:55:45.486Z,27.80
2018-06-27T13:58:14.092Z,27.40
2018-06-27T14:00:42.595Z,27.20
2018-06-27T14:03:11.135Z,27.00
2018-06-27T14:05:39.610Z,26.70
2018-06-27T14:08:08.096Z,26.60
2018-06-27T14:10:36.947Z,26.60
2018-06-27T14:13:05.511Z,26.60
2018-06-27T14:15:34.019Z,26.70
2018-06-27T14:18:02.583Z,26.70
2018-06-27T14:20:31.053Z,26.90
2018-06-27T14:22:59.583Z,26.90
2018-06-27T14:25:28.070Z,27.10
2018-06-27T14:27:56.539Z,27.20
2018-06-27T14:30:25.090Z,27.40
2018-06-27T14:32:53.584Z,27.50
2018-06-27T14:35:22.949Z,27.30
2018-06-27T14:37:51.549Z,27.20
2018-06-27T14:40:19.981Z,27.10
2018-06-27T14:42:48.438Z,27.10
2018-06-27T14:45:16.923Z,27.00
2018-06-27T14:47:45.434Z,27.00
2018-06-27T14:50:13.924Z,27.00
2018-06-27T14:52:42.442Z,26.90
2018-06-27T14:55:10.906Z,26.80
2018-06-27T14:57:39.414Z,26.90
2018-06-27T15:00:09.236Z,26.80
2018-06-27T15:02:38.572Z,26.80
2018-06-27T15:05:07.135Z,26.80
2018-06-27T15:07:35.678Z,26.90
2018-06-27T15:10:04.266Z,27.10
2018-06-27T15:12:32.778Z,27.20
2018-06-27T15:15:01.359Z,27.20
2018-06-27T15:17:29.865Z,27.30
2018-06-27T15:19:58.383Z,27.40
2018-06-27T15:22:26.950Z,27.40
2018-06-27T15:24:55.555Z,27.30
2018-06-27T15:27:24.126Z,27.30
2018-06-27T15:29:52.667Z,27.20
2018-06-27T15:32:22.835Z,27.20
2018-06-27T15:34:51.761Z,27.20
2018-06-27T15:37:20.371Z,27.40
2018-06-27T15:39:48.882Z,27.60
2018-06-27T15:42:17.382Z,27.80
2018-06-27T15:47:14.020Z,28.20
2018-06-27T15:49:42.575Z,28.40
2018-06-27T15:52:11.098Z,28.60
2018-06-27T15:54:39.638Z,28.70
2018-06-27T15:57:08.218Z,29.10
2018-06-27T15:59:37.081Z,29.60
2018-06-27T16:02:05.667Z,29.80
2018-06-27T16:04:34.214Z,30.10
2018-06-27T16:07:02.718Z,30.40
2018-06-27T16:11:59.439Z,31.00
2018-06-27T16:14:27.946Z,31.30
2018-06-27T16:16:56.622Z,31.60
2018-06-27T16:19:25.090Z,31.70
2018-06-27T16:21:53.574Z,31.90
2018-06-27T16:24:22.136Z,31.90
2018-06-27T16:26:50.632Z,31.90
2018-06-27T16:29:19.111Z,32.20
2018-06-27T16:31:47.660Z,32.30
2018-06-27T16:34:16.153Z,32.40
2018-06-27T16:36:44.682Z,32.60
2018-06-27T16:39:13.228Z,32.70
2018-06-27T16:41:41.726Z,32.90
2018-06-27T16:44:10.415Z,33.00
2018-06-27T16:46:39.023Z,33.00
2018-06-27T16:49:08.081Z,32.90
2018-06-27T16:51:36.746Z,32.70
2018-06-27T16:54:05.518Z,32.60
2018-06-27T16:56:34.119Z,32.40
2018-06-27T16:59:02.826Z,32.10
2018-06-27T17:01:31.522Z,32.10
2018-06-27T17:03:59.778Z,32.60
2018-06-27T17:08:56.446Z,33.60
2018-06-27T17:11:24.919Z,34.00
2018-06-27T17:16:21.678Z,34.10
2018-06-27T17:21:18.430Z,34.00
2018-06-27T17:23:46.957Z,33.90
2018-06-27T17:26:15.454Z,33.80
2018-06-27T17:28:43.961Z,33.80
2018-06-27T17:31:12.443Z,33.60
2018-06-27T17:33:40.889Z,33.50
2018-06-27T17:36:09.375Z,33.40
2018-06-27T17:38:38.276Z,33.40
2018-06-27T17:41:06.849Z,33.40
2018-06-27T17:43:35.283Z,33.40
2018-06-27T17:46:03.823Z,33.20
2018-06-27T17:48:32.414Z,33.20
2018-06-27T17:51:00.962Z,33.10
2018-06-27T17:53:29.496Z,33.20
2018-06-27T17:55:58.038Z,33.40
2018-06-27T17:58:26.614Z,33.60
2018-06-27T18:03:23.313Z,33.00
2018-06-27T18:05:51.799Z,32.30
2018-06-27T18:08:20.303Z,31.40
2018-06-27T18:10:48.932Z,30.20
2018-06-27T18:13:17.411Z,29.10
2018-06-27T18:15:46.527Z,28.00
2018-06-27T18:18:15.226Z,27.10
2018-06-27T18:20:43.723Z,26.40
2018-06-27T18:23:12.234Z,25.70
2018-06-27T18:25:40.699Z,25.10
2018-06-27T18:28:09.183Z,24.70
2018-06-27T18:30:37.682Z,24.30
2018-06-27T18:33:06.138Z,24.00
2018-06-27T18:35:34.675Z,23.80
2018-06-27T18:38:03.306Z,23.70
2018-06-27T18:40:32.124Z,23.50
2018-06-27T18:43:01.442Z,23.20
2018-06-27T18:45:30.516Z,23.10
2018-06-27T18:47:59.039Z,23.00
2018-06-27T18:50:27.587Z,22.90
2018-06-27T18:52:56.115Z,22.60
2018-06-27T18:55:24.623Z,22.30
2018-06-27T18:57:53.088Z,22.20
2018-06-27T19:00:21.591Z,22.10
2018-06-27T19:02:50.088Z,21.90
2018-06-27T19:05:18.799Z,21.90
2018-06-27T19:07:47.528Z,21.80
2018-06-27T19:10:16.830Z,21.80
2018-06-27T19:12:45.339Z,21.70
2018-06-27T19:15:13.871Z,21.60
2018-06-27T19:17:42.334Z,21.50
2018-06-27T19:20:10.807Z,21.50
2018-06-27T19:22:39.438Z,21.40
2018-06-27T19:25:09.743Z,21.30
2018-06-27T19:27:38.427Z,21.10
2018-06-27T19:30:07.426Z,21.00
2018-06-27T19:32:36.039Z,21.00
2018-06-27T19:35:04.870Z,20.90
2018-06-27T19:37:33.492Z,20.80
2018-06-27T19:40:01.987Z,20.80
2018-06-27T19:42:30.480Z,20.70
2018-06-27T19:44:59.419Z,20.60
2018-06-27T19:47:28.274Z,20.50
2018-06-27T19:49:56.829Z,20.50
2018-06-27T19:52:25.396Z,20.40
2018-06-27T19:54:53.862Z,20.40
2018-06-27T19:57:22.552Z,20.30
2018-06-27T19:59:51.060Z,20.20
2018-06-27T20:02:19.626Z,20.20
2018-06-27T20:04:48.411Z,20.10
2018-06-27T20:07:19.235Z,19.90
2018-06-27T20:09:48.345Z,19.80
2018-06-27T20:12:16.995Z,19.70
2018-06-27T20:14:45.562Z,19.60
2018-06-27T20:17:14.053Z,19.50
2018-06-27T20:19:43.122Z,19.40
2018-06-27T20:22:11.753Z,19.40
2018-06-27T20:24:40.234Z,19.30
2018-06-27T20:27:08.735Z,19.30
2018-06-27T20:29:37.227Z,19.20
2018-06-27T20:32:05.791Z,19.10
2018-06-27T20:34:34.276Z,19.10
2018-06-27T20:37:02.743Z,19.00
2018-06-27T20:39:31.239Z,18.90
2018-06-27T20:41:59.791Z,18.80
2018-06-27T20:44:28.339Z,18.70
2018-06-27T20:46:56.907Z,18.60
2018-06-27T20:49:25.454Z,18.60
2018-06-27T20:51:55.068Z,18.50
2018-06-27T20:59:20.061Z,18.10
2018-06-27T21:01:49.098Z,18.00
2018-06-27T21:04:17.603Z,17.90
2018-06-27T21:06:46.043Z,17.90
2018-06-27T21:09:15.271Z,17.80
2018-06-27T21:11:43.904Z,17.70
2018-06-27T21:20:56.431Z,17.60
2018-06-27T21:23:25.059Z,17.40
2018-06-27T21:25:53.658Z,17.30
2018-06-27T21:28:22.070Z,17.20
2018-06-27T21:33:18.781Z,17.10
2018-06-27T21:35:47.254Z,17.10
2018-06-27T21:38:15.712Z,17.10
2018-06-27T21:40:44.170Z,17.00
2018-06-27T21:43:12.734Z,16.90
2018-06-27T21:45:41.190Z,16.80
2018-06-27T21:48:09.683Z,16.70
2018-06-27T21:50:38.330Z,16.70
2018-06-27T21:53:06.745Z,16.60
2018-06-27T21:55:35.195Z,16.60
2018-06-27T21:58:03.705Z,16.60
2018-06-27T22:00:32.737Z,16.50
2018-06-27T22:03:01.874Z,16.40
2018-06-27T22:05:30.339Z,16.30
2018-06-27T22:07:58.923Z,16.30
2018-06-27T22:10:27.474Z,16.30
2018-06-27T22:12:56.012Z,16.30
2018-06-27T22:15:24.460Z,16.30
2018-06-27T22:17:52.921Z,16.20
2018-06-27T22:20:21.378Z,16.10
2018-06-27T22:22:49.830Z,16.10
2018-06-27T22:25:18.342Z,16.00
2018-06-27T22:27:46.790Z,16.00
2018-06-27T22:30:15.270Z,16.00
2018-06-27T22:32:43.823Z,16.00
2018-06-27T22:35:12.427Z,16.00
2018-06-27T22:37:40.951Z,16.00
2018-06-27T22:40:09.594Z,16.00
2018-06-27T22:42:38.176Z,16.00
2018-06-27T22:45:06.730Z,16.00
2018-06-27T22:47:35.243Z,16.00
2018-06-27T22:50:03.831Z,16.00
2018-06-27T22:52:32.352Z,16.00
2018-06-27T22:55:00.834Z,15.90
2018-06-27T22:57:29.482Z,15.80
2018-06-27T22:59:58.071Z,15.70
2018-06-27T23:02:26.749Z,15.70
2018-06-27T23:04:55.183Z,15.70
2018-06-27T23:07:23.646Z,15.60
2018-06-27T23:09:52.544Z,15.70
2018-06-27T23:12:21.027Z,15.70
2018-06-27T23:14:49.501Z,15.70
2018-06-27T23:17:17.978Z,15.70
2018-06-27T23:19:46.415Z,15.60
2018-06-27T23:22:25.950Z,15.60
2018-06-27T23:24:54.622Z,15.60
2018-06-27T23:27:23.191Z,15.50
2018-06-27T23:32:19.942Z,15.50
2018-06-27T23:34:48.382Z,15.60
2018-06-27T23:37:16.943Z,15.60
2018-06-27T23:39:53.690Z,15.60
2018-06-27T23:42:22.239Z,15.60
2018-06-27T23:44:50.754Z,15.60
2018-06-27T23:47:19.402Z,15.50
2018-06-27T23:49:47.964Z,15.50
2018-06-27T23:52:16.636Z,15.50
2018-06-27T23:54:45.123Z,15.50
2018-06-27T23:57:13.640Z,15.40
2018-06-27T23:59:42.190Z,15.50
